Time;durP1;ratioP1;P1;durP2;ratioP2;P2;SDS_P1;SDS_P2;PMS_P1;PMS_P2;Temp;Humidity;BMP_temperature;BMP_pressure;BME280_temperature;BME280_humidity;BME280_pressure;Samples;Min_cycle;Max_cycle;Signal;HPM_P1;HPM_P2
2023/07/03 08:29:03;;;;;;;;;2.33;2.33;;;;;21.46;46.90;101199.91;5550303;23;47238;-88
2023/07/03 08:31:28;;;;;;;;;5.67;3.67;;;;;21.47;47.01;101201.59;4856732;29;47096;-90
2023/07/03 08:33:55;;;;;;;;;3.67;3.67;;;;;21.45;47.08;101190.28;4844314;29;45445;-90
2023/07/03 08:36:21;;;;;;;;;4.33;4.00;;;;;21.58;46.94;101192.00;4859223;29;45390;-90
2023/07/03 08:38:49;;;;;;;;;4.00;4.00;;;;;21.59;46.54;101199.81;4839902;29;45461;-90
2023/07/03 08:41:16;;;;;;;;;6.00;3.67;;;;;21.65;46.77;101201.16;4845568;29;46419;-88
2023/07/03 08:43:51;;;;;;;;;4.33;4.00;;;;;21.61;46.92;101199.69;4840197;29;45540;-90
2023/07/03 08:46:23;;;;;;;;;6.00;4.33;;;;;21.67;47.06;101193.94;4839915;29;45392;-90
2023/07/03 08:48:52;;;;;;;;;5.33;4.33;;;;;21.67;46.44;101191.31;4844898;29;45706;-90
2023/07/03 08:51:22;;;;;;;;;4.00;2.67;;;;;21.74;46.82;101181.09;4859125;29;47322;-90
2023/07/03 08:53:56;;;;;;;;;6.33;4.33;;;;;21.90;46.36;101188.72;4846712;29;45548;-89
2023/07/03 08:56:26;;;;;;;;;4.00;4.00;;;;;21.97;46.46;101195.22;4821654;29;45556;-89
2023/07/03 08:58:56;;;;;;;;;4.00;3.00;;;;;22.00;46.51;101189.66;4850862;29;45750;-90
2023/07/03 09:01:27;;;;;;;;;3.00;3.00;;;;;22.09;46.70;101192.56;4862936;29;45645;-89
2023/07/03 09:04:20;;;;;;;;;3.33;3.00;;;;;22.15;46.48;101194.75;4832040;29;45756;-90
2023/07/03 09:06:52;;;;;;;;;4.00;3.00;;;;;22.14;45.77;101201.03;4844063;29;45713;-90
2023/07/03 09:09:30;;;;;;;;;6.33;4.67;;;;;22.02;45.60;101187.75;4842096;29;45342;-90
2023/07/03 09:12:05;;;;;;;;;5.00;4.00;;;;;22.04;45.80;101195.59;4855524;29;47860;-92
2023/07/03 09:14:37;;;;;;;;;3.00;2.67;;;;;22.02;45.33;101200.16;4843208;29;45352;-90
2023/07/03 09:17:08;;;;;;;;;4.67;3.00;;;;;22.02;45.53;101203.66;4844780;29;46040;-91
2023/07/03 09:19:37;;;;;;;;;5.00;5.00;;;;;21.92;45.07;101188.56;4845983;29;45528;-90
2023/07/03 09:22:07;;;;;;;;;4.67;4.33;;;;;22.00;45.57;101202.91;4845131;29;45269;-89
2023/07/03 09:24:43;;;;;;;;;3.00;3.00;;;;;21.98;45.28;101206.69;4842518;29;45485;-91
2023/07/03 09:27:14;;;;;;;;;4.33;4.33;;;;;21.98;45.60;101210.16;4844761;29;45382;-90
2023/07/03 09:29:42;;;;;;;;;4.00;2.33;;;;;21.88;45.27;101215.31;4844474;29;45449;-90
2023/07/03 09:32:12;;;;;;;;;4.00;4.00;;;;;21.85;45.11;101212.91;4838818;29;46505;-90
2023/07/03 09:35:01;;;;;;;;;4.00;4.00;;;;;21.82;45.33;101212.28;4843581;29;45325;-91
2023/07/03 09:37:27;;;;;;;;;4.00;4.00;;;;;21.76;45.49;101209.16;4857981;29;45347;-91
2023/07/03 09:39:53;;;;;;;;;4.00;4.00;;;;;21.69;45.01;101186.72;4842105;29;45618;-90
2023/07/03 09:42:20;;;;;;;;;5.00;4.33;;;;;21.87;45.35;101203.03;4842078;29;45548;-89
2023/07/03 09:44:45;;;;;;;;;5.67;4.67;;;;;21.91;45.22;101203.66;4841246;29;45434;-90
2023/07/03 09:47:22;;;;;;;;;4.33;3.33;;;;;21.90;45.51;101188.72;4844413;29;45458;-89
2023/07/03 09:49:48;;;;;;;;;4.00;4.00;;;;;21.98;45.51;101199.56;4857419;29;45485;-89
2023/07/03 09:52:14;;;;;;;;;4.00;4.00;;;;;22.08;45.54;101201.50;4840809;29;46839;-89
2023/07/03 09:54:46;;;;;;;;;3.67;3.33;;;;;22.21;45.94;101212.81;4853869;29;45397;-89
2023/07/03 09:57:28;;;;;;;;;6.00;5.00;;;;;22.31;45.79;101214.75;4842369;29;45620;-89
2023/07/03 10:00:03;;;;;;;;;5.67;4.33;;;;;22.38;45.71;101203.56;4841677;29;45506;-90
2023/07/03 10:02:29;;;;;;;;;2.67;2.33;;;;;22.46;45.21;101202.09;4855568;29;45954;-89
2023/07/03 10:04:54;;;;;;;;;5.33;3.33;;;;;22.46;45.22;101186.19;4845267;29;45575;-89
2023/07/03 10:07:19;;;;;;;;;3.67;3.33;;;;;22.61;45.25;101190.28;4861395;29;45370;-89
2023/07/03 10:09:46;;;;;;;;;3.33;3.33;;;;;22.73;44.95;101199.06;4859277;29;45572;-89
2023/07/03 10:12:27;;;;;;;;;3.67;3.67;;;;;23.01;44.60;101214.56;4844008;29;45735;-87
2023/07/03 10:15:05;;;;;;;;;5.00;3.67;;;;;23.18;44.60;101210.50;4862574;29;45427;-89
2023/07/03 10:17:37;;;;;;;;;4.33;4.33;;;;;23.32;44.37;101202.28;4862739;29;45320;-89
2023/07/03 10:20:09;;;;;;;;;5.33;4.33;;;;;23.50;43.90;101212.31;4845351;29;45695;-89
2023/07/03 10:22:37;;;;;;;;;5.00;4.00;;;;;23.64;43.69;101205.84;4862467;29;46549;-88
2023/07/03 10:25:09;;;;;;;;;5.50;4.00;;;;;23.78;43.50;101204.69;4844975;29;45381;-89
2023/07/03 10:27:37;;;;;;;;;3.33;3.33;;;;;23.87;43.28;101211.03;4853143;29;45463;-89
2023/07/03 10:30:08;;;;;;;;;4.00;4.00;;;;;23.89;43.10;101207.25;4856963;29;45482;-87
2023/07/03 10:32:37;;;;;;;;;4.33;2.33;;;;;23.97;42.55;101213.75;4837606;29;47218;-85
2023/07/03 10:35:10;;;;;;;;;4.00;3.00;;;;;24.01;42.59;101213.34;4845428;29;45465;-93
2023/07/03 10:37:59;;;;;;;;;3.00;3.00;;;;;23.98;42.58;101207.47;4841693;29;45634;-91
2023/07/03 10:40:39;;;;;;;;;4.00;2.00;;;;;23.93;42.25;101199.03;4848272;29;45518;-92
2023/07/03 10:43:08;;;;;;;;;3.67;3.67;;;;;23.85;42.65;101199.69;4846498;29;46707;-92
2023/07/03 10:45:37;;;;;;;;;7.00;4.00;;;;;23.78;42.15;101186.09;4860713;29;45374;-91
2023/07/03 10:48:14;;;;;;;;;8.33;5.67;;;;;23.86;42.24;101198.72;4862066;29;45410;-92
2023/07/03 10:50:55;;;;;;;;;4.00;3.67;;;;;23.74;42.41;101184.66;4844798;29;45388;-92
2023/07/03 10:53:27;;;;;;;;;4.33;4.00;;;;;23.84;42.62;101203.31;4844323;29;45308;-93
2023/07/03 10:55:58;;;;;;;;;6.00;3.67;;;;;23.90;42.21;101205.47;4844487;29;45492;-94
2023/07/03 10:58:38;;;;;;;;;3.67;3.67;;;;;23.88;42.62;101194.09;4845415;29;45342;-93
2023/07/03 11:01:07;;;;;;;;;4.33;4.00;;;;;24.00;42.24;101201.03;4844821;29;45390;-94
2023/07/03 11:04:04;;;;;;;;;7.67;3.33;;;;;23.93;41.78;101191.88;4844573;29;45673;-95
2023/07/03 11:06:48;;;;;;;;;3.00;2.33;;;;;23.95;41.80;101210.38;4844773;29;45286;-92
2023/07/03 11:09:29;;;;;;;;;2.67;2.67;;;;;23.93;42.00;101197.19;4827893;29;45360;-94
2023/07/03 11:12:15;;;;;;;;;3.67;3.00;;;;;24.12;41.86;101198.31;4845263;29;45465;-94
2023/07/03 11:14:59;;;;;;;;;3.67;3.00;;;;;24.29;42.05;101196.84;4844822;29;45432;-96
2023/07/03 11:17:56;;;;;;;;;3.00;3.00;;;;;24.50;41.07;101196.78;4844844;29;45374;-96
2023/07/03 11:20:56;;;;;;;;;3.00;2.00;;;;;24.59;40.34;101197.78;4844928;29;45305;-93
2023/07/03 11:23:43;;;;;;;;;4.00;2.00;;;;;24.71;39.84;101200.31;4844783;29;45335;-95
2023/07/03 11:26:37;;;;;;;;;2.00;2.00;;;;;24.85;39.53;101201.78;4844504;29;45401;-90
2023/07/03 11:29:05;;;;;;;;;3.00;2.00;;;;;24.91;38.36;101191.41;4841479;29;45443;-89
2023/07/03 11:31:31;;;;;;;;;2.00;2.00;;;;;25.00;38.83;101192.41;4857360;29;45286;-91
2023/07/03 11:33:58;;;;;;;;;2.33;2.33;;;;;25.15;38.12;101192.84;4842165;29;45324;-91
2023/07/03 11:36:51;;;;;;;;;1.00;1.00;;;;;25.34;38.35;101189.31;4840230;29;46722;-90
2023/07/03 11:39:24;;;;;;;;;3.33;2.67;;;;;25.49;37.59;101194.19;4841481;29;45323;-89
2023/07/03 11:42:01;;;;;;;;;4.33;2.33;;;;;25.66;37.27;101195.31;4841857;29;45417;-91
2023/07/03 11:44:47;;;;;;;;;3.33;3.00;;;;;25.78;37.18;101190.66;4843659;29;45593;-90
2023/07/03 11:47:24;;;;;;;;;3.00;2.33;;;;;25.98;36.12;101204.78;4843671;29;46389;-91
2023/07/03 11:49:54;;;;;;;;;3.33;3.00;;;;;26.00;34.88;101188.63;4846638;29;45234;-91
2023/07/03 11:52:27;;;;;;;;;3.00;3.00;;;;;26.04;34.77;101184.69;4845484;29;45428;-89
2023/07/03 11:55:07;;;;;;;;;3.00;3.00;;;;;26.14;34.13;101195.28;4846226;29;45423;-91
2023/07/03 11:57:41;;;;;;;;;3.67;3.00;;;;;26.23;33.84;101201.56;4845635;29;47083;-94
2023/07/03 12:00:13;;;;;;;;;5.00;3.00;;;;;26.34;33.56;101197.91;4845877;29;45290;-93
2023/07/03 12:02:38;;;;;;;;;1.00;1.00;;;;;26.40;33.28;101195.50;4830175;29;45439;-91
2023/07/03 12:05:05;;;;;;;;;2.67;2.67;;;;;26.41;33.64;101174.97;4833468;29;45300;-91
2023/07/03 12:07:31;;;;;;;;;3.67;2.33;;;;;26.64;33.16;101186.09;4845492;29;47946;-91
2023/07/03 12:10:35;;;;;;;;;5.00;2.67;;;;;26.77;32.86;101190.22;4829962;29;45479;-92
2023/07/03 12:13:25;;;;;;;;;2.67;2.33;;;;;26.80;32.28;101188.06;4845330;29;45270;-91
2023/07/03 12:15:59;;;;;;;;;1.67;1.00;;;;;26.75;32.05;101189.53;4830466;29;44936;-93
2023/07/03 12:18:25;;;;;;;;;1.00;1.00;;;;;26.78;31.96;101190.06;4829826;29;46825;-93
2023/07/03 12:20:59;;;;;;;;;2.33;2.33;;;;;26.85;31.19;101200.97;4845663;29;45408;-91
2023/07/03 12:23:34;;;;;;;;;0.00;0.00;;;;;26.90;31.35;101181.84;4846584;29;45294;-92
2023/07/03 12:26:02;;;;;;;;;0.33;0.33;;;;;27.04;30.99;101186.66;4846865;29;45663;-92
2023/07/03 12:28:27;;;;;;;;;0.67;0.33;;;;;27.21;30.12;101200.16;4846312;29;46426;-91
2023/07/03 12:31:09;;;;;;;;;3.00;1.00;;;;;27.25;29.83;101206.03;4845776;29;45407;-90
2023/07/03 12:33:35;;;;;;;;;1.33;0.67;;;;;27.28;30.57;101201.22;4846002;29;45398;-90
2023/07/03 12:36:00;;;;;;;;;1.67;1.00;;;;;27.28;30.37;101190.53;4845780;29;45339;-91
2023/07/03 12:38:25;;;;;;;;;0.00;0.00;;;;;27.47;29.58;101196.69;4845796;29;46726;-89
2023/07/03 12:40:51;;;;;;;;;1.33;0.67;;;;;27.57;29.77;101193.91;4851402;29;45366;-95
2023/07/03 12:43:18;;;;;;;;;1.67;0.67;;;;;27.76;30.03;101200.09;4846953;29;45362;-96
2023/07/03 12:45:50;;;;;;;;;4.00;2.67;;;;;27.83;29.46;101195.78;4847257;29;45463;-96
2023/07/03 12:48:21;;;;;;;;;1.67;1.00;;;;;27.80;29.64;101194.25;4845458;29;47296;-91
2023/07/03 12:50:49;;;;;;;;;1.00;0.67;;;;;27.96;28.84;101206.88;4846453;29;45412;-94
2023/07/03 12:53:15;;;;;;;;;3.00;2.00;;;;;27.99;28.82;101200.34;4846492;29;45395;-92
2023/07/03 12:55:49;;;;;;;;;0.00;0.00;;;;;28.01;28.61;101204.56;4846642;29;45644;-93
2023/07/03 13:01:07;;;;;;;;;2.00;2.00;;;;;28.24;28.66;101205.88;933325;23;46332;-93
2023/07/03 13:03:42;;;;;;;;;3.67;2.67;;;;;28.22;28.90;101195.28;4880422;29;44825;-96
2023/07/03 13:06:26;;;;;;;;;4.33;3.00;;;;;28.37;28.58;101197.41;5133769;23;45630;-96
2023/07/03 13:08:57;;;;;;;;;8.00;5.67;;;;;28.39;28.56;101190.03;4920872;28;47165;-96
2023/07/03 13:11:38;;;;;;;;;11.00;10.67;;;;;28.46;28.42;101200.94;4933416;28;45298;-96
2023/07/03 13:14:15;;;;;;;;;12.50;12.50;;;;;28.44;27.59;101189.53;4911945;28;45411;-96
2023/07/03 13:16:44;;;;;;;;;11.25;9.50;;;;;28.43;28.42;101199.41;4904327;29;44698;-94
2023/07/03 13:19:09;;;;;;;;;12.33;11.00;;;;;28.43;28.23;101195.91;4910145;28;45472;-94
2023/07/03 13:21:37;;;;;;;;;9.33;9.00;;;;;28.40;28.35;101184.53;4914564;28;45365;-95
2023/07/03 13:24:13;;;;;;;;;10.00;9.00;;;;;28.47;28.15;101176.66;4914385;28;45434;-95
2023/07/03 13:26:41;;;;;;;;;9.67;9.00;;;;;28.54;28.37;101174.19;4919468;28;45339;-95
2023/07/03 13:29:08;;;;;;;;;9.33;8.33;;;;;28.57;27.76;101183.72;4922439;28;45834;-96
2023/07/03 13:31:35;;;;;;;;;7.00;6.00;;;;;28.56;27.63;101182.91;4942963;28;44703;-96
2023/07/03 13:34:07;;;;;;;;;3.67;3.33;;;;;28.54;27.75;101182.22;4921225;28;44857;-94
2023/07/03 13:36:38;;;;;;;;;2.00;2.00;;;;;28.48;27.67;101174.84;4936698;28;45555;-96
2023/07/03 13:39:13;;;;;;;;;1.67;1.67;;;;;28.51;27.86;101174.53;4921654;28;45525;-94
2023/07/03 13:41:41;;;;;;;;;1.00;1.00;;;;;28.56;27.90;101174.03;4920561;28;44924;-95
2023/07/03 13:44:12;;;;;;;;;4.00;0.00;;;;;28.58;27.86;101163.97;4912621;28;45378;-95
2023/07/03 13:46:39;;;;;;;;;2.67;1.33;;;;;28.61;28.08;101163.66;4929211;28;45351;-95
2023/07/03 13:49:06;;;;;;;;;2.00;1.00;;;;;28.61;27.37;101175.19;4922460;28;46596;-95
2023/07/03 13:51:32;;;;;;;;;3.00;1.33;;;;;28.63;27.53;101170.53;4923468;28;45456;-96
2023/07/03 13:53:57;;;;;;;;;1.33;1.33;;;;;28.60;27.08;101175.38;5056486;23;44810;-95
2023/07/03 13:56:23;;;;;;;;;3.00;2.00;;;;;28.58;27.25;101158.63;4888172;29;45240;-96
2023/07/03 13:58:49;;;;;;;;;1.33;1.00;;;;;28.60;27.06;101170.03;4888101;29;46341;-95
2023/07/03 14:01:20;;;;;;;;;1.00;1.00;;;;;28.53;27.34;101161.81;4883404;29;45588;-96
2023/07/03 14:03:51;;;;;;;;;2.67;0.00;;;;;28.51;27.36;101156.59;4920983;23;45482;-94
2023/07/03 14:06:16;;;;;;;;;1.33;1.33;;;;;28.50;27.52;101148.72;4905095;28;45794;-96
2023/07/03 14:08:42;;;;;;;;;2.00;1.00;;;;;28.53;27.08;101159.97;4914801;28;46805;-96
2023/07/03 14:11:11;;;;;;;;;2.33;1.33;;;;;28.56;27.63;101156.13;4906290;28;44843;-96
2023/07/03 14:13:38;;;;;;;;;3.00;1.00;;;;;28.59;27.67;101157.66;4910125;29;44917;-95
2023/07/03 14:16:05;;;;;;;;;2.33;1.67;;;;;28.66;27.49;101153.28;4905503;29;44921;-96
2023/07/03 14:18:30;;;;;;;;;1.33;1.00;;;;;28.71;27.50;101148.28;4923372;28;47191;-94
2023/07/03 14:20:55;;;;;;;;;3.33;3.33;;;;;28.78;27.32;101156.47;4901313;28;45579;-94
2023/07/03 14:23:21;;;;;;;;;5.00;3.33;;;;;28.82;27.79;101165.84;4916763;28;45520;-95
2023/07/03 14:25:47;;;;;;;;;3.33;3.00;;;;;28.77;27.02;101163.69;4901359;29;44916;-93
2023/07/03 14:28:13;;;;;;;;;3.00;2.00;;;;;28.70;27.14;101160.00;4899215;28;45744;-95
2023/07/03 14:30:39;;;;;;;;;2.00;2.00;;;;;28.66;27.29;101156.78;4901873;29;45317;-94
2023/07/03 14:33:05;;;;;;;;;5.00;2.00;;;;;28.67;27.47;101152.28;4900784;28;45603;-94
2023/07/03 14:35:31;;;;;;;;;3.33;3.00;;;;;28.65;27.52;101149.78;4917460;28;45377;-96
2023/07/03 14:37:56;;;;;;;;;2.00;2.00;;;;;28.61;27.29;101156.44;4900847;28;44958;-95
2023/07/03 14:40:22;;;;;;;;;4.33;4.33;;;;;28.47;27.38;101151.75;4890078;29;45355;-93
2023/07/03 14:42:47;;;;;;;;;2.00;1.00;;;;;28.37;27.36;101157.25;4899025;29;44885;-94
2023/07/03 14:45:13;;;;;;;;;5.75;4.50;;;;;28.30;27.60;101156.22;4914967;28;45589;-94
2023/07/03 14:47:40;;;;;;;;;5.33;5.33;;;;;28.27;27.60;101147.53;4900802;28;45288;-94
2023/07/03 14:50:06;;;;;;;;;3.33;3.33;;;;;28.33;27.85;101147.88;4902828;29;45624;-96
2023/07/03 14:52:41;;;;;;;;;4.00;2.33;;;;;28.35;27.90;101138.69;4906336;29;44677;-94
2023/07/03 14:55:09;;;;;;;;;5.33;3.00;;;;;28.36;27.84;101137.69;4908080;29;45267;-93
2023/07/03 14:57:34;;;;;;;;;5.00;4.00;;;;;28.32;27.70;101136.31;4906932;28;45283;-93
2023/07/03 15:00:00;;;;;;;;;4.33;4.00;;;;;28.30;27.53;101135.66;4901898;29;45470;-95
2023/07/03 15:02:25;;;;;;;;;6.00;4.33;;;;;28.23;27.51;101143.50;4899919;29;45475;-93
2023/07/03 15:04:51;;;;;;;;;4.25;3.50;;;;;28.22;28.14;101147.13;4900381;29;45002;-94
2023/07/03 15:07:16;;;;;;;;;6.75;5.75;;;;;28.17;27.56;101138.75;4900990;29;45654;-96
2023/07/03 15:09:41;;;;;;;;;6.00;5.00;;;;;28.10;27.69;101148.44;4899617;29;45434;-95
2023/07/03 15:12:08;;;;;;;;;6.00;4.00;;;;;27.98;27.77;101138.03;4899873;29;45469;-92
2023/07/03 15:14:38;;;;;;;;;2.25;2.00;;;;;27.92;27.63;101138.69;4899462;28;45515;-93
2023/07/03 15:17:05;;;;;;;;;5.33;4.33;;;;;27.91;27.86;101133.47;4887208;29;46947;-95
2023/07/03 15:19:31;;;;;;;;;5.00;5.00;;;;;27.91;28.32;101139.66;4900524;28;44817;-93
2023/07/03 15:21:57;;;;;;;;;11.00;5.67;;;;;27.86;28.44;101139.31;4899384;29;45355;-93
2023/07/03 15:24:22;;;;;;;;;5.33;4.67;;;;;27.80;28.07;101139.94;4903224;29;45321;-94
2023/07/03 15:26:48;;;;;;;;;5.00;4.00;;;;;27.72;28.50;101130.88;4902659;28;45331;-93
2023/07/03 15:29:14;;;;;;;;;4.33;4.33;;;;;27.70;27.86;101138.25;4904430;29;44803;-94
2023/07/03 15:31:39;;;;;;;;;7.67;6.00;;;;;27.69;27.95;101133.91;4904788;29;45306;-93
2023/07/03 15:34:05;;;;;;;;;10.00;8.00;;;;;27.64;28.07;101128.19;4908229;29;45243;-93
2023/07/03 15:36:31;;;;;;;;;10.00;8.33;;;;;27.57;28.13;101127.94;4894662;28;47855;-93
2023/07/03 15:38:58;;;;;;;;;10.00;8.00;;;;;27.55;28.36;101129.94;4898491;29;45388;-93
2023/07/03 15:41:25;;;;;;;;;2.75;2.75;;;;;27.54;28.75;101133.59;4890111;28;45570;-93
2023/07/03 15:43:51;;;;;;;;;12.00;8.33;;;;;27.55;28.44;101134.44;4888669;28;45373;-93
2023/07/03 15:46:17;;;;;;;;;9.00;8.00;;;;;27.48;28.54;101127.06;4893833;28;46348;-92
2023/07/03 15:48:44;;;;;;;;;10.00;9.33;;;;;27.43;28.44;101131.19;4899993;28;45424;-94
2023/07/03 15:51:11;;;;;;;;;10.33;8.00;;;;;27.37;28.81;101121.13;4910495;29;45473;-95
2023/07/03 15:56:20;;;;;;;;;13.25;11.50;;;;;27.20;28.19;101119.19;5015965;23;45449;-95
2023/07/03 15:58:51;;;;;;;;;12.00;9.33;;;;;27.24;28.07;101119.72;4927945;23;44879;-95
2023/07/03 16:01:18;;;;;;;;;8.67;8.33;;;;;27.22;28.66;101121.72;4901931;29;45166;-95
2023/07/03 16:03:50;;;;;;;;;12.33;10.00;;;;;27.20;28.86;101121.88;4883825;29;45376;-93
2023/07/03 16:06:18;;;;;;;;;7.67;7.67;;;;;27.20;28.43;101119.19;4891486;29;45483;-95
2023/07/03 16:08:44;;;;;;;;;9.00;8.67;;;;;27.17;28.89;101118.66;4918470;29;44862;-94
2023/07/03 16:11:16;;;;;;;;;10.00;9.00;;;;;27.15;28.65;101115.31;4908384;28;46379;-94
2023/07/03 16:13:41;;;;;;;;;11.00;10.00;;;;;27.13;28.98;101114.63;4919284;28;44880;-96
2023/07/03 16:16:13;;;;;;;;;9.33;6.33;;;;;27.14;28.67;101121.63;4910079;29;47149;-96
2023/07/03 16:18:38;;;;;;;;;8.00;7.00;;;;;27.05;28.16;101116.25;4904185;29;44917;-94
2023/07/03 16:21:06;;;;;;;;;3.33;2.33;;;;;27.00;29.08;101109.69;4904621;28;45351;-95
2023/07/03 16:23:32;;;;;;;;;11.00;7.33;;;;;26.98;28.55;101125.03;4906858;29;46769;-94
2023/07/03 16:26:00;;;;;;;;;14.67;9.33;;;;;26.93;28.70;101120.13;4905717;28;45224;-94
2023/07/03 16:28:30;;;;;;;;;6.33;4.33;;;;;26.87;28.87;101121.56;4885936;29;45344;-95
2023/07/03 16:31:05;;;;;;;;;7.25;7.25;;;;;26.80;29.04;101129.34;4901654;28;45437;-96
2023/07/03 16:33:36;;;;;;;;;6.33;6.33;;;;;26.75;29.04;101117.47;4903785;29;45592;-95
2023/07/03 16:36:05;;;;;;;;;7.25;7.25;;;;;26.72;29.03;101113.28;4886472;29;46140;-95
2023/07/03 16:38:31;;;;;;;;;7.25;7.00;;;;;26.74;29.54;101111.28;4902245;29;45370;-95
2023/07/03 16:41:00;;;;;;;;;7.25;7.25;;;;;26.78;29.80;101109.97;4901449;28;45500;-96
2023/07/03 16:43:27;;;;;;;;;7.50;7.50;;;;;26.81;29.79;101107.00;4906538;29;45345;-95
2023/07/03 16:45:52;;;;;;;;;11.25;9.25;;;;;26.80;29.18;101118.66;4909749;28;45563;-96
2023/07/03 16:48:17;;;;;;;;;8.50;6.50;;;;;26.71;29.42;101122.28;4910330;29;44816;-96
2023/07/03 16:50:43;;;;;;;;;7.00;7.00;;;;;26.65;29.75;101117.53;4890828;29;45388;-94
2023/07/03 16:53:08;;;;;;;;;11.00;6.50;;;;;26.60;29.76;101118.00;4902495;29;44769;-95
2023/07/03 16:55:33;;;;;;;;;9.25;7.50;;;;;26.61;29.73;101114.31;4897286;28;46338;-93
2023/07/03 16:57:59;;;;;;;;;11.00;10.25;;;;;26.61;29.90;101105.50;4884987;29;45619;-95
2023/07/03 17:00:25;;;;;;;;;11.75;9.00;;;;;26.57;29.67;101104.13;4888443;29;45410;-95
2023/07/03 17:02:50;;;;;;;;;7.25;6.50;;;;;26.57;30.34;101109.44;4886618;29;45592;-95
2023/07/03 17:05:16;;;;;;;;;10.00;10.00;;;;;26.57;29.93;101104.13;4883688;29;47135;-95
2023/07/03 17:07:41;;;;;;;;;8.75;8.75;;;;;26.59;30.07;101107.47;4886536;29;44963;-96
2023/07/03 17:10:07;;;;;;;;;7.00;7.00;;;;;26.61;30.45;101106.31;4893646;29;44803;-96
2023/07/03 17:12:32;;;;;;;;;9.00;7.75;;;;;26.61;30.34;101108.97;4897657;29;45212;-96
2023/07/03 17:14:58;;;;;;;;;7.00;7.00;;;;;26.61;30.31;101108.97;4885812;29;46973;-94
2023/07/03 17:17:23;;;;;;;;;9.00;8.33;;;;;26.60;30.01;101101.97;4884673;28;45585;-93
2023/07/03 17:19:48;;;;;;;;;9.00;6.00;;;;;26.59;30.41;101097.63;4897035;28;45117;-93
2023/07/03 17:22:14;;;;;;;;;11.00;8.33;;;;;26.59;30.30;101100.31;4903836;29;45320;-95
2023/07/03 17:24:39;;;;;;;;;9.33;8.67;;;;;26.49;29.57;101099.53;4885941;29;47176;-95
2023/07/03 17:27:04;;;;;;;;;8.67;7.67;;;;;26.41;30.07;101100.28;4902693;29;44874;-95
2023/07/03 17:29:30;;;;;;;;;8.33;7.00;;;;;26.38;29.79;101101.44;4904465;29;45504;-95
2023/07/03 17:31:56;;;;;;;;;7.00;6.00;;;;;26.34;30.42;101094.72;4898000;28;45230;-94
2023/07/03 17:34:21;;;;;;;;;9.00;7.00;;;;;26.30;30.06;101089.84;4899828;29;46859;-95
2023/07/03 17:36:46;;;;;;;;;10.00;8.33;;;;;26.30;29.98;101092.50;4907364;28;44773;-95
2023/07/03 17:39:12;;;;;;;;;7.00;7.00;;;;;26.22;30.43;101096.75;4901877;28;45490;-95
2023/07/03 17:41:42;;;;;;;;;9.00;7.33;;;;;26.17;30.43;101096.34;4900106;29;45026;-95
2023/07/03 17:44:08;;;;;;;;;9.00;8.00;;;;;26.10;30.46;101089.94;4900629;29;47248;-95
2023/07/03 17:46:33;;;;;;;;;6.67;6.67;;;;;26.09;30.64;101088.22;4900578;28;45415;-96
2023/07/03 17:48:59;;;;;;;;;10.00;8.33;;;;;26.07;30.54;101087.56;4890128;29;44890;-96
2023/07/03 17:51:26;;;;;;;;;8.67;6.00;;;;;26.07;30.57;101091.06;4906109;29;45483;-95
2023/07/03 17:53:52;;;;;;;;;5.67;5.33;;;;;26.07;30.75;101087.56;4898784;29;45596;-95
2023/07/03 17:56:19;;;;;;;;;5.67;5.67;;;;;26.04;30.86;101082.50;4880226;29;44882;-95
2023/07/03 17:58:48;;;;;;;;;8.33;8.33;;;;;26.02;30.59;101088.84;4884441;29;45549;-95
2023/07/03 18:01:13;;;;;;;;;8.00;7.33;;;;;26.01;30.57;101081.00;4891696;29;45342;-96
2023/07/03 18:03:39;;;;;;;;;8.25;7.00;;;;;25.96;30.73;101088.63;4904063;29;47603;-94
2023/07/03 18:06:07;;;;;;;;;9.33;9.00;;;;;25.88;30.70;101097.34;4899945;29;44788;-95
2023/07/03 18:08:33;;;;;;;;;7.00;7.00;;;;;25.82;30.80;101098.75;4899665;29;45314;-96
2023/07/03 18:10:58;;;;;;;;;7.67;6.00;;;;;25.78;30.63;101101.88;4901447;28;45538;-96
2023/07/03 18:13:24;;;;;;;;;9.33;9.00;;;;;25.73;30.84;101100.47;4884785;29;47072;-96
2023/07/03 18:15:49;;;;;;;;;7.67;5.67;;;;;25.68;30.77;101102.75;4902688;29;45361;-96
2023/07/03 18:18:15;;;;;;;;;9.67;8.00;;;;;25.63;30.83;101094.34;4901697;29;45399;-96
2023/07/03 18:20:40;;;;;;;;;7.67;5.33;;;;;25.58;31.06;101093.94;4885522;29;45966;-95
2023/07/03 18:23:06;;;;;;;;;9.33;7.00;;;;;25.54;31.25;101104.06;4901793;28;45993;-94
2023/07/03 18:25:34;;;;;;;;;6.67;5.33;;;;;25.50;30.96;101091.97;4904813;29;45537;-96
2023/07/03 18:27:59;;;;;;;;;5.00;4.75;;;;;25.43;31.37;101104.19;4903320;29;45395;-96
2023/07/03 18:30:25;;;;;;;;;9.00;6.00;;;;;25.37;31.49;101094.97;4879721;29;45749;-96
2023/07/03 18:32:50;;;;;;;;;6.00;5.33;;;;;25.34;31.54;101100.56;4886240;29;45534;-95
2023/07/03 18:35:15;;;;;;;;;6.33;6.33;;;;;25.28;31.09;101098.50;4902371;29;45409;-95
2023/07/03 18:37:44;;;;;;;;;6.67;5.33;;;;;25.24;31.20;101099.75;4885009;28;45554;-94
2023/07/03 18:40:09;;;;;;;;;7.00;7.00;;;;;25.19;31.57;101097.53;4897977;29;45703;-84
2023/07/03 18:42:35;;;;;;;;;9.67;6.67;;;;;25.19;31.21;101108.19;4884720;29;45859;-84
2023/07/03 18:45:00;;;;;;;;;8.50;7.00;;;;;25.15;31.18;101098.78;4883342;29;45510;-85
2023/07/03 18:47:29;;;;;;;;;7.33;5.33;;;;;25.11;31.33;101097.38;4896826;29;45468;-84
2023/07/03 18:49:55;;;;;;;;;7.00;7.00;;;;;25.04;31.47;101102.47;4880244;29;45516;-84
2023/07/03 18:52:22;;;;;;;;;8.33;6.67;;;;;25.01;31.52;101102.72;4878986;29;47078;-84
2023/07/03 18:54:47;;;;;;;;;7.00;6.33;;;;;24.95;31.76;101112.13;4892902;29;45432;-85
2023/07/03 18:57:13;;;;;;;;;7.33;6.00;;;;;24.92;31.81;101105.28;4898827;29;45493;-85
2023/07/03 18:59:38;;;;;;;;;6.00;6.00;;;;;24.91;31.63;101110.72;4899303;29;45801;-84
2023/07/03 19:02:04;;;;;;;;;8.00;7.50;;;;;24.87;31.55;101109.31;4899663;29;45450;-84
2023/07/03 19:04:30;;;;;;;;;10.00;6.75;;;;;24.84;31.98;101115.75;4899339;28;45471;-84
2023/07/03 19:06:55;;;;;;;;;5.75;5.75;;;;;24.81;31.81;101116.88;4898439;29;45637;-84
2023/07/03 19:09:21;;;;;;;;;6.75;4.75;;;;;24.76;31.70;101113.75;4901246;29;45455;-85
2023/07/03 19:11:46;;;;;;;;;5.00;5.00;;;;;24.72;31.89;101127.50;4901081;29;45569;-85
2023/07/03 19:14:11;;;;;;;;;7.50;5.50;;;;;24.72;32.41;101127.50;4900051;29;45688;-85
2023/07/03 19:16:37;;;;;;;;;5.00;5.00;;;;;24.67;32.42;101125.25;4886229;29;45644;-85
2023/07/03 19:19:03;;;;;;;;;6.00;6.00;;;;;24.64;32.25;101134.38;4906888;29;45365;-85
2023/07/03 19:21:28;;;;;;;;;7.67;6.67;;;;;24.63;32.47;101137.97;4887028;29;45792;-85
2023/07/03 19:23:55;;;;;;;;;8.50;5.25;;;;;24.62;32.53;101135.47;4900117;29;45362;-85
2023/07/03 19:26:21;;;;;;;;;7.25;7.25;;;;;24.57;32.54;101141.19;4901548;29;45419;-85
2023/07/03 19:28:49;;;;;;;;;6.00;6.00;;;;;24.54;32.28;101146.81;4883851;29;45403;-85
2023/07/03 19:31:15;;;;;;;;;8.75;7.00;;;;;24.48;32.55;101139.38;4897504;29;47886;-86
2023/07/03 19:33:41;;;;;;;;;6.33;5.00;;;;;24.42;32.66;101143.41;4901370;29;45524;-85
2023/07/03 19:36:19;;;;;;;;;8.33;7.67;;;;;24.36;32.69;101141.31;4900009;28;45777;-85
2023/07/03 19:38:44;;;;;;;;;5.67;4.33;;;;;24.33;32.99;101145.06;4881329;29;45414;-85
2023/07/03 19:41:11;;;;;;;;;6.33;4.33;;;;;24.30;32.87;101150.66;4882396;29;46965;-85
2023/07/03 19:43:40;;;;;;;;;6.00;5.75;;;;;24.23;32.95;101150.38;4899638;29;45589;-85
2023/07/03 19:46:07;;;;;;;;;5.75;5.75;;;;;24.15;33.13;101152.84;4900670;29;45463;-84
2023/07/03 19:48:33;;;;;;;;;5.25;4.25;;;;;24.05;33.05;101152.78;4900161;29;45594;-85
2023/07/03 19:51:01;;;;;;;;;6.00;5.00;;;;;23.98;32.86;101157.78;4883232;29;47862;-84
2023/07/03 19:53:28;;;;;;;;;5.33;5.33;;;;;23.95;33.29;101159.88;4899731;28;45664;-85
2023/07/03 19:55:53;;;;;;;;;7.00;4.67;;;;;23.91;32.94;101164.63;4898424;29;45597;-85
2023/07/03 19:58:19;;;;;;;;;6.67;4.33;;;;;23.85;33.33;101155.38;4888691;29;45402;-85
2023/07/03 20:00:52;;;;;;;;;5.67;5.00;;;;;23.78;33.88;101161.34;4883641;29;45518;-85
2023/07/03 20:03:17;;;;;;;;;5.75;5.75;;;;;23.73;33.57;101157.25;4894491;29;45582;-85
2023/07/03 20:05:45;;;;;;;;;7.50;5.75;;;;;23.67;33.76;101165.75;4877029;29;45583;-85
2023/07/03 20:08:10;;;;;;;;;5.50;5.00;;;;;23.65;33.58;101173.00;4893428;28;45513;-84